createdAt,value
2023-01-03T00:04:55.214Z,94767.91
2023-01-03T00:09:58.158Z,94760.13
2023-01-03T00:15:00.168Z,94787.06
2023-01-03T00:20:01.743Z,94793.63
2023-01-03T00:25:05.270Z,94806.63
2023-01-03T00:30:07.915Z,94806.94
2023-01-03T00:35:09.989Z,94805.53
2023-01-03T00:40:13.112Z,94790.06
2023-01-03T00:45:19.640Z,94801.28
2023-01-03T00:50:21.469Z,94805.03
2023-01-03T00:55:24.395Z,94803.50
2023-01-03T01:00:25.966Z,94806.41
2023-01-03T01:05:28.679Z,94802.94
2023-01-03T01:10:31.557Z,94806.94
2023-01-03T01:15:34.199Z,94801.78
2023-01-03T01:20:39.261Z,94817.25
2023-01-03T01:25:42.114Z,94808.47
2023-01-03T01:30:43.736Z,94810.69
2023-01-03T01:35:45.345Z,94809.88
2023-01-03T01:40:48.279Z,94816.06
2023-01-03T01:45:49.946Z,94811.78
2023-01-03T01:50:55.888Z,94809.47
2023-01-03T01:56:03.691Z,94807.53
2023-01-03T02:01:06.454Z,94823.63
2023-01-03T02:06:10.219Z,94835.31
2023-01-03T02:11:29.743Z,94841.78
2023-01-03T02:16:47.645Z,94849.31
2023-01-03T02:22:22.036Z,94838.53
2023-01-03T02:27:53.343Z,94832.44
2023-01-03T02:33:07.079Z,94812.63
2023-01-03T02:38:16.435Z,94813.28
2023-01-03T02:43:25.168Z,94804.56
2023-01-03T02:48:36.677Z,94812.75
2023-01-03T02:53:42.644Z,94812.69
2023-01-03T02:58:48.121Z,94810.97
2023-01-03T03:03:52.227Z,94814.84
2023-01-03T03:08:54.055Z,94820.97
2023-01-03T03:14:00.311Z,94831.50
2023-01-03T03:19:11.599Z,94844.00
2023-01-03T03:24:19.923Z,94841.00
2023-01-03T03:29:21.505Z,94823.47
2023-01-03T03:34:27.331Z,94806.50
2023-01-03T03:39:32.327Z,94815.13
2023-01-03T03:44:37.389Z,94829.72
2023-01-03T03:49:44.091Z,94829.97
2023-01-03T03:54:51.172Z,94822.66
2023-01-03T03:59:57.271Z,94823.38
2023-01-03T04:05:05.428Z,94824.03
2023-01-03T04:10:09.135Z,94825.16
2023-01-03T04:15:10.999Z,94824.13
2023-01-03T04:20:14.139Z,94814.03
2023-01-03T04:25:15.855Z,94821.00
2023-01-03T04:30:17.441Z,94827.25
2023-01-03T04:35:20.270Z,94825.75
2023-01-03T04:40:21.831Z,94822.94
2023-01-03T04:45:23.431Z,94822.66
2023-01-03T04:50:26.291Z,94825.13
2023-01-03T04:55:27.857Z,94834.50
2023-01-03T05:00:29.419Z,94840.16
2023-01-03T05:05:32.474Z,94846.47
2023-01-03T05:10:34.451Z,94845.63
2023-01-03T05:15:37.871Z,94854.97
2023-01-03T05:20:40.714Z,94859.94
2023-01-03T05:25:42.238Z,94871.09
2023-01-03T05:30:43.801Z,94880.22
2023-01-03T05:35:47.215Z,94871.84
2023-01-03T05:40:48.781Z,94869.63
2023-01-03T05:45:51.767Z,94868.09
2023-01-03T05:50:56.791Z,94891.69
2023-01-03T05:56:03.528Z,94879.75
2023-01-03T06:01:08.601Z,94874.91
2023-01-03T06:06:13.324Z,94874.47
2023-01-03T06:11:16.078Z,94880.38
2023-01-03T06:16:24.328Z,94898.41
2023-01-03T06:21:28.077Z,94888.41
2023-01-03T06:26:29.705Z,94891.13
2023-01-03T06:31:31.494Z,94896.91
2023-01-03T06:36:34.498Z,94900.91
2023-01-03T06:41:36.358Z,94905.88
2023-01-03T06:46:37.939Z,94917.16
2023-01-03T06:51:41.026Z,94912.84
2023-01-03T06:56:42.649Z,94908.69
2023-01-03T07:01:44.536Z,94910.56
2023-01-03T07:06:47.933Z,94918.63
2023-01-03T07:11:49.752Z,94915.31
2023-01-03T07:16:51.240Z,94913.50
2023-01-03T07:21:54.289Z,94934.59
2023-01-03T07:26:55.840Z,94942.75
2023-01-03T07:31:57.377Z,94954.34
2023-01-03T07:37:00.203Z,94956.13
2023-01-03T07:42:01.757Z,94961.50
2023-01-03T07:47:03.353Z,94953.38
2023-01-03T07:52:06.258Z,94954.75
2023-01-03T07:57:07.827Z,94962.75
2023-01-03T08:02:09.430Z,94962.19
2023-01-03T08:07:12.424Z,94963.44
2023-01-03T08:12:13.931Z,94965.94
2023-01-03T08:17:15.419Z,94965.94
2023-01-03T08:22:18.333Z,94974.06
2023-01-03T08:27:19.868Z,94984.56
2023-01-03T08:32:21.545Z,94988.38
2023-01-03T08:37:24.377Z,94990.38
2023-01-03T08:42:26.691Z,94991.34
2023-01-03T08:47:28.934Z,95003.81
2023-01-03T08:52:35.328Z,94997.88
2023-01-03T08:57:37.122Z,95005.53
2023-01-03T09:02:38.821Z,95011.34
2023-01-03T09:07:41.864Z,95010.47
2023-01-03T09:12:43.442Z,95016.84
2023-01-03T09:17:45.013Z,95009.41
2023-01-03T09:22:48.019Z,95011.44
2023-01-03T09:27:49.620Z,95012.97
2023-01-03T09:32:51.234Z,95016.00
2023-01-03T09:37:54.093Z,95015.88
2023-01-03T09:42:56.530Z,95021.81
2023-01-03T09:47:59.672Z,95023.19
2023-01-03T09:53:04.401Z,95031.03
2023-01-03T09:58:12.868Z,95019.09
2023-01-03T10:03:28.066Z,95027.47
2023-01-03T10:08:41.942Z,95029.00
2023-01-03T10:13:59.663Z,95027.69
2023-01-03T10:19:13.422Z,95025.66
2023-01-03T10:24:22.473Z,95032.25
2023-01-03T10:29:24.338Z,95031.13
2023-01-03T10:34:25.902Z,95027.22
2023-01-03T10:39:31.526Z,95025.38
2023-01-03T10:44:33.215Z,95012.66
2023-01-03T10:49:34.817Z,95018.19
2023-01-03T10:54:48.922Z,95015.97
2023-01-03T10:59:50.389Z,94997.06
2023-01-03T11:05:08.565Z,94997.06
2023-01-03T11:10:18.459Z,94996.25
2023-01-03T11:15:38.435Z,94995.59
2023-01-03T11:20:46.709Z,94994.44
2023-01-03T11:25:56.365Z,94992.59
2023-01-03T11:31:05.170Z,94991.00
2023-01-03T11:41:49.556Z,94987.38
2023-01-03T11:47:11.411Z,94984.13
2023-01-03T11:52:29.499Z,94985.50
2023-01-03T11:57:39.070Z,94972.16
2023-01-03T12:03:00.399Z,94965.03
2023-01-03T12:08:14.021Z,94973.28
2023-01-03T12:13:29.679Z,94966.97
2023-01-03T12:18:42.196Z,94969.28
2023-01-03T12:23:48.594Z,94966.22
2023-01-03T12:28:59.596Z,94970.34
2023-01-03T12:34:12.134Z,94968.72
2023-01-03T12:39:33.580Z,94964.03
2023-01-03T12:44:40.286Z,94965.25
2023-01-03T12:49:47.781Z,94960.22
2023-01-03T12:54:54.552Z,94955.06
2023-01-03T13:00:12.439Z,94953.97
2023-01-03T13:05:20.367Z,94952.22
2023-01-03T13:10:28.202Z,94949.16
2023-01-03T13:15:36.526Z,94948.06
2023-01-03T13:20:41.436Z,94948.41
2023-01-03T13:25:45.160Z,94947.09
2023-01-03T13:30:48.407Z,94950.16
2023-01-03T13:35:58.771Z,94944.84
2023-01-03T13:41:18.854Z,94952.84
2023-01-03T13:46:25.518Z,94948.94
2023-01-03T13:51:48.805Z,94949.59
2023-01-03T13:57:02.035Z,94953.00
2023-01-03T14:02:38.700Z,94949.16
2023-01-03T14:08:07.961Z,94944.72
2023-01-03T14:13:27.674Z,94952.06
2023-01-03T14:18:31.851Z,94952.50
2023-01-03T14:24:01.882Z,94946.84
2023-01-03T14:28:56.501Z,94942.91
2023-01-03T14:34:01.817Z,94945.94
2023-01-03T14:39:03.551Z,94944.22
2023-01-03T14:44:07.276Z,94949.91
2023-01-03T14:49:20.168Z,94957.47
2023-01-03T14:54:22.027Z,94959.84
2023-01-03T14:59:24.113Z,94968.88
2023-01-03T15:04:27.037Z,94967.13
2023-01-03T15:09:33.562Z,94973.00
2023-01-03T15:14:37.031Z,94985.47
2023-01-03T15:19:46.268Z,94973.47
2023-01-03T15:24:50.450Z,94981.63
2023-01-03T15:29:52.183Z,94981.09
2023-01-03T15:34:55.246Z,94992.69
2023-01-03T15:39:57.219Z,94991.44
2023-01-03T15:44:59.226Z,94997.50
2023-01-03T15:50:03.862Z,94997.50
2023-01-03T15:55:05.949Z,94999.59
2023-01-03T16:00:14.546Z,95008.56
2023-01-03T16:05:21.980Z,94995.03
2023-01-03T16:10:23.839Z,94994.06
2023-01-03T16:15:25.448Z,94999.59
2023-01-03T16:20:28.458Z,95001.13
2023-01-03T16:25:30.200Z,95005.94
2023-01-03T16:30:34.262Z,95010.63
2023-01-03T16:35:43.923Z,95009.63
2023-01-03T16:40:51.354Z,95007.38
2023-01-03T16:46:02.162Z,95010.72
2023-01-03T16:51:15.359Z,95022.56
2023-01-03T16:56:18.222Z,95023.50
2023-01-03T17:07:24.627Z,95024.59
2023-01-03T17:18:31.124Z,95038.53
2023-01-03T17:23:37.876Z,95038.53
2023-01-03T17:28:39.537Z,95040.84
2023-01-03T17:33:41.116Z,95045.91
2023-01-03T17:38:44.895Z,95047.84
2023-01-03T17:43:46.974Z,95058.97
2023-01-03T17:48:49.638Z,95067.91
2023-01-03T17:53:52.691Z,95063.78
2023-01-03T17:58:56.446Z,95065.28
2023-01-03T18:03:58.299Z,95061.50
2023-01-03T18:09:06.540Z,95057.50
2023-01-03T18:14:13.258Z,95063.41
2023-01-03T18:19:15.868Z,95070.84
2023-01-03T18:30:24.947Z,95058.97
2023-01-03T18:35:34.026Z,95059.53
2023-01-03T18:40:39.639Z,95056.09
2023-01-03T18:45:42.666Z,95059.28
2023-01-03T18:50:51.896Z,95052.63
2023-01-03T18:56:34.864Z,95050.53
2023-01-03T19:01:38.937Z,95040.47
2023-01-03T19:06:43.287Z,95042.56
2023-01-03T19:11:46.007Z,95044.22
2023-01-03T19:16:48.930Z,95050.88
2023-01-03T19:21:50.582Z,95051.94
2023-01-03T19:26:54.996Z,95050.63
2023-01-03T19:32:02.450Z,95052.50
2023-01-03T19:37:04.239Z,95050.81
2023-01-03T19:42:07.425Z,95055.44
2023-01-03T19:47:13.224Z,95064.72
2023-01-03T19:52:15.747Z,95071.09
2023-01-03T19:57:26.497Z,95063.50
2023-01-03T20:02:42.317Z,95059.75
2023-01-03T20:07:44.995Z,95063.25
2023-01-03T20:12:49.101Z,95058.66
2023-01-03T20:17:52.427Z,95061.34
2023-01-03T20:23:05.593Z,95052.56
2023-01-03T20:28:15.309Z,95051.41
2023-01-03T20:33:18.283Z,95061.66
2023-01-03T20:38:20.063Z,95057.88
2023-01-03T20:43:46.015Z,95062.81
2023-01-03T20:48:55.603Z,95058.97
2023-01-03T20:53:57.260Z,95056.09
2023-01-03T20:58:59.130Z,95036.03
2023-01-03T21:04:02.139Z,95047.28
2023-01-03T21:09:05.731Z,95050.44
2023-01-03T21:14:10.072Z,95047.75
2023-01-03T21:19:15.970Z,95051.06
2023-01-03T21:24:20.540Z,95057.69
2023-01-03T21:29:22.205Z,95045.16
2023-01-03T21:34:26.232Z,95044.63
2023-01-03T21:39:27.774Z,95042.19
2023-01-03T21:44:29.398Z,95033.16
2023-01-03T21:49:32.427Z,95043.22
2023-01-03T21:54:33.987Z,95034.75
2023-01-03T21:59:35.606Z,95040.66
2023-01-03T22:04:38.510Z,95041.16
2023-01-03T22:09:40.155Z,95041.63
2023-01-03T22:14:43.339Z,95046.56
2023-01-03T22:19:49.422Z,95045.91
2023-01-03T22:24:53.078Z,95054.75
2023-01-03T22:29:55.652Z,95046.44
2023-01-03T22:34:58.704Z,95045.38
2023-01-03T22:40:01.368Z,95053.44
2023-01-03T22:45:03.335Z,95059.25
2023-01-03T22:50:07.935Z,95057.28
2023-01-03T22:55:09.800Z,95054.75
2023-01-03T23:00:12.547Z,95055.13
2023-01-03T23:05:15.537Z,95049.59
2023-01-03T23:10:18.175Z,95049.59
2023-01-03T23:15:19.746Z,95038.72
2023-01-03T23:20:23.015Z,95037.59
2023-01-03T23:25:24.618Z,95019.28
2023-01-03T23:30:26.727Z,95022.31
2023-01-03T23:35:29.714Z,95026.56
2023-01-03T23:40:31.342Z,95016.34
2023-01-03T23:45:33.098Z,94992.19
2023-01-03T23:50:36.256Z,94993.00
2023-01-03T23:55:37.932Z,94994.66
